Port Hedland International Airport
YPPD : now visible

Airfield :











YOU CAN JOIN US ON...

 
LOGIN :

Register | Disclaimer

   EN    FR    IT 

 









Legend :    VFR   Marginal VFR   IFR   Intensive IFR   Very Intensive IFR
Visi :
Ceiling :
>= 8 km
>= 3000ft
5 to 8 km
1000 to 3000 ft
1500m to 5 km
500 to 1000 ft
800 to 1500m
200 to 500 ft
< 800m
< 200 ft
Symbols :   Thunderstorms  Fog  Heavy snow  Heavy precipitations  Wind > 20 kt






- Airport Elevation : 33 ft
- IATA code : PHE


YPPD - Port Hedland International

CURRENT METAR :
  • 100700Z AUTO 36015KT 9999 // NCD 34/17 Q1012

EXPIRED METARs :
  • 100630Z AUTO 36015KT 9999 // NCD 33/17 Q1013 RF00.0/000.0
  • 100600Z AUTO 01015KT 9999 // NCD 34/18 Q1013
  • 100530Z AUTO 01014KT 9999 // NCD 34/17 Q1013 RF00.0/000.0
  • 100500Z AUTO 01013KT 9999 // NCD 34/18 Q1013 RF00.0/000.0
  • 100430Z AUTO 02011KT 9999 // NCD 34/18 Q1013 RF00.0/000.0

TAF AMD TAF YPPD
Valid from the 10 at 06:00 until the 11 at 06:00 UTC


100621Z 1006/1106 03014KT CAVOK
FM101000 33010KT CAVOK
FM101200 22008KT CAVOK
FM102000 18008KT 9999 FEW010
FM110000 07007KT CAVOK



MET'MAP, your aeronautical weather chart ! - Copyright ORBIFLY December 2007 - Disclaimer

ORBIFLY MET'MAP TEAM :

Programming & Development : Alexandra Zaïnal
Concept & original design : Baudouin d'Aumeries
Assistance for programming : Marc-Olivier Méhu
Technical & hardware support : Manuel Goepfert

Contact : metmap@orbifly.com




SOURCES & CREDITS :

   NOAA       Earth
Advisory